sensor_id;sensor_type;location;lat;lon;timestamp;P1;durP1;ratioP1;P2;durP2;ratioP2
52740;SDS011;38634;52.138;9.912;2023-03-01T00:02:41;9.18;;;4.10;;
52740;SDS011;38634;52.138;9.912;2023-03-01T00:05:26;7.68;;;3.75;;
52740;SDS011;38634;52.138;9.912;2023-03-01T00:08:10;7.32;;;3.58;;
52740;SDS011;38634;52.138;9.912;2023-03-01T00:11:10;4.28;;;3.38;;
52740;SDS011;38634;52.138;9.912;2023-03-01T00:14:01;7.32;;;4.60;;
52740;SDS011;38634;52.138;9.912;2023-03-01T00:16:48;6.60;;;4.07;;
52740;SDS011;38634;52.138;9.912;2023-03-01T00:19:33;5.78;;;3.97;;
52740;SDS011;38634;52.138;9.912;2023-03-01T00:22:18;11.52;;;3.95;;
52740;SDS011;38634;52.138;9.912;2023-03-01T00:25:03;13.27;;;4.43;;
52740;SDS011;38634;52.138;9.912;2023-03-01T00:27:47;8.57;;;3.55;;
52740;SDS011;38634;52.138;9.912;2023-03-01T00:30:32;11.82;;;4.10;;
52740;SDS011;38634;52.138;9.912;2023-03-01T00:33:17;10.93;;;3.95;;
52740;SDS011;38634;52.138;9.912;2023-03-01T00:36:02;9.15;;;3.88;;
52740;SDS011;38634;52.138;9.912;2023-03-01T00:38:47;10.30;;;4.05;;
52740;SDS011;38634;52.138;9.912;2023-03-01T00:41:32;8.32;;;3.80;;
52740;SDS011;38634;52.138;9.912;2023-03-01T00:44:18;7.35;;;3.70;;
52740;SDS011;38634;52.138;9.912;2023-03-01T00:47:02;8.32;;;3.90;;
52740;SDS011;38634;52.138;9.912;2023-03-01T00:49:47;8.73;;;3.75;;
52740;SDS011;38634;52.138;9.912;2023-03-01T00:52:32;9.55;;;3.53;;
52740;SDS011;38634;52.138;9.912;2023-03-01T00:55:17;11.52;;;4.10;;
52740;SDS011;38634;52.138;9.912;2023-03-01T00:58:01;9.57;;;3.90;;
52740;SDS011;38634;52.138;9.912;2023-03-01T01:00:46;11.13;;;4.20;;
52740;SDS011;38634;52.138;9.912;2023-03-01T01:03:30;11.80;;;3.90;;
52740;SDS011;38634;52.138;9.912;2023-03-01T01:06:25;11.10;;;3.92;;
52740;SDS011;38634;52.138;9.912;2023-03-01T01:09:14;12.00;;;4.28;;
52740;SDS011;38634;52.138;9.912;2023-03-01T01:12:01;12.93;;;4.38;;
52740;SDS011;38634;52.138;9.912;2023-03-01T01:14:45;10.52;;;3.60;;
52740;SDS011;38634;52.138;9.912;2023-03-01T01:17:30;10.15;;;4.53;;
52740;SDS011;38634;52.138;9.912;2023-03-01T01:20:15;11.20;;;3.97;;
52740;SDS011;38634;52.138;9.912;2023-03-01T01:22:59;10.10;;;3.85;;
52740;SDS011;38634;52.138;9.912;2023-03-01T01:25:44;11.82;;;4.00;;
52740;SDS011;38634;52.138;9.912;2023-03-01T01:28:29;11.30;;;4.53;;
52740;SDS011;38634;52.138;9.912;2023-03-01T01:31:14;11.93;;;3.97;;
52740;SDS011;38634;52.138;9.912;2023-03-01T01:33:59;10.77;;;4.70;;
52740;SDS011;38634;52.138;9.912;2023-03-01T01:36:50;10.32;;;3.95;;
52740;SDS011;38634;52.138;9.912;2023-03-01T01:39:39;7.82;;;3.63;;
52740;SDS011;38634;52.138;9.912;2023-03-01T01:42:24;3.70;;;3.03;;
52740;SDS011;38634;52.138;9.912;2023-03-01T01:48:21;6.35;;;3.53;;
52740;SDS011;38634;52.138;9.912;2023-03-01T01:51:13;5.68;;;3.80;;
52740;SDS011;38634;52.138;9.912;2023-03-01T01:54:12;5.60;;;4.45;;
52740;SDS011;38634;52.138;9.912;2023-03-01T01:57:03;3.50;;;3.13;;
52740;SDS011;38634;52.138;9.912;2023-03-01T01:59:55;8.38;;;3.72;;
52740;SDS011;38634;52.138;9.912;2023-03-01T02:02:43;11.60;;;4.45;;
52740;SDS011;38634;52.138;9.912;2023-03-01T02:08:48;12.35;;;4.95;;
52740;SDS011;38634;52.138;9.912;2023-03-01T02:11:33;11.82;;;4.75;;
52740;SDS011;38634;52.138;9.912;2023-03-01T02:14:18;10.00;;;3.88;;
52740;SDS011;38634;52.138;9.912;2023-03-01T02:17:02;10.57;;;4.10;;
52740;SDS011;38634;52.138;9.912;2023-03-01T02:23:07;11.02;;;3.95;;
52740;SDS011;38634;52.138;9.912;2023-03-01T02:25:52;12.10;;;4.18;;
52740;SDS011;38634;52.138;9.912;2023-03-01T02:28:51;11.57;;;4.25;;
52740;SDS011;38634;52.138;9.912;2023-03-01T02:31:35;12.27;;;4.35;;
52740;SDS011;38634;52.138;9.912;2023-03-01T02:34:26;11.27;;;3.95;;
52740;SDS011;38634;52.138;9.912;2023-03-01T02:37:13;11.48;;;4.03;;
52740;SDS011;38634;52.138;9.912;2023-03-01T02:40:02;9.40;;;3.60;;
52740;SDS011;38634;52.138;9.912;2023-03-01T02:42:51;8.52;;;3.90;;
52740;SDS011;38634;52.138;9.912;2023-03-01T02:45:42;10.75;;;3.83;;
52740;SDS011;38634;52.138;9.912;2023-03-01T02:48:40;14.93;;;5.97;;
52740;SDS011;38634;52.138;9.912;2023-03-01T02:54:54;10.50;;;3.88;;
52740;SDS011;38634;52.138;9.912;2023-03-01T02:57:50;14.05;;;4.45;;
52740;SDS011;38634;52.138;9.912;2023-03-01T03:00:39;13.80;;;4.60;;
52740;SDS011;38634;52.138;9.912;2023-03-01T03:03:29;13.63;;;4.47;;
52740;SDS011;38634;52.138;9.912;2023-03-01T03:06:13;12.98;;;4.28;;
52740;SDS011;38634;52.138;9.912;2023-03-01T03:08:58;14.00;;;4.22;;
52740;SDS011;38634;52.138;9.912;2023-03-01T03:11:43;15.13;;;4.63;;
52740;SDS011;38634;52.138;9.912;2023-03-01T03:14:30;12.73;;;4.50;;
52740;SDS011;38634;52.138;9.912;2023-03-01T03:17:18;14.50;;;4.68;;
52740;SDS011;38634;52.138;9.912;2023-03-01T03:20:04;13.80;;;4.20;;
52740;SDS011;38634;52.138;9.912;2023-03-01T03:22:50;14.75;;;4.85;;
52740;SDS011;38634;52.138;9.912;2023-03-01T03:25:37;9.43;;;4.05;;
52740;SDS011;38634;52.138;9.912;2023-03-01T03:28:22;14.63;;;4.97;;
52740;SDS011;38634;52.138;9.912;2023-03-01T03:31:07;11.15;;;4.25;;
52740;SDS011;38634;52.138;9.912;2023-03-01T03:33:52;19.27;;;7.07;;
52740;SDS011;38634;52.138;9.912;2023-03-01T12:25:39;12.82;;;2.67;;
52740;SDS011;38634;52.138;9.912;2023-03-01T12:32:15;13.57;;;3.45;;
52740;SDS011;38634;52.138;9.912;2023-03-01T12:50:53;11.50;;;2.78;;
52740;SDS011;38634;52.138;9.912;2023-03-01T12:53:42;11.98;;;2.80;;
52740;SDS011;38634;52.138;9.912;2023-03-01T12:56:34;13.23;;;3.25;;
52740;SDS011;38634;52.138;9.912;2023-03-01T12:59:28;11.50;;;2.90;;
52740;SDS011;38634;52.138;9.912;2023-03-01T13:02:26;13.25;;;3.80;;
52740;SDS011;38634;52.138;9.912;2023-03-01T13:05:39;12.85;;;3.33;;
52740;SDS011;38634;52.138;9.912;2023-03-01T13:08:43;14.65;;;4.55;;
52740;SDS011;38634;52.138;9.912;2023-03-01T13:11:50;12.23;;;2.90;;
52740;SDS011;38634;52.138;9.912;2023-03-01T13:14:35;11.85;;;2.78;;
52740;SDS011;38634;52.138;9.912;2023-03-01T13:17:41;14.15;;;2.95;;
52740;SDS011;38634;52.138;9.912;2023-03-01T13:20:34;14.43;;;3.25;;
52740;SDS011;38634;52.138;9.912;2023-03-01T13:23:35;11.60;;;2.63;;
52740;SDS011;38634;52.138;9.912;2023-03-01T13:26:21;14.77;;;3.28;;
52740;SDS011;38634;52.138;9.912;2023-03-01T13:29:11;9.90;;;2.53;;
52740;SDS011;38634;52.138;9.912;2023-03-01T13:35:41;27.88;;;3.53;;
52740;SDS011;38634;52.138;9.912;2023-03-01T13:44:37;35.97;;;8.40;;
52740;SDS011;38634;52.138;9.912;2023-03-01T13:47:23;14.07;;;4.22;;
52740;SDS011;38634;52.138;9.912;2023-03-01T13:50:15;39.00;;;8.50;;
52740;SDS011;38634;52.138;9.912;2023-03-01T13:53:04;22.25;;;5.82;;
52740;SDS011;38634;52.138;9.912;2023-03-01T13:56:33;22.98;;;5.97;;
52740;SDS011;38634;52.138;9.912;2023-03-01T13:59:15;31.35;;;7.80;;
52740;SDS011;38634;52.138;9.912;2023-03-01T14:02:02;14.10;;;4.38;;
52740;SDS011;38634;52.138;9.912;2023-03-01T14:05:00;40.05;;;9.70;;
52740;SDS011;38634;52.138;9.912;2023-03-01T14:07:50;30.73;;;8.00;;
52740;SDS011;38634;52.138;9.912;2023-03-01T14:10:40;18.02;;;5.90;;
52740;SDS011;38634;52.138;9.912;2023-03-01T14:20:20;36.88;;;9.02;;
52740;SDS011;38634;52.138;9.912;2023-03-01T14:23:12;20.52;;;6.35;;
52740;SDS011;38634;52.138;9.912;2023-03-01T14:25:59;40.25;;;9.90;;
52740;SDS011;38634;52.138;9.912;2023-03-01T14:28:47;39.33;;;9.68;;
52740;SDS011;38634;52.138;9.912;2023-03-01T14:31:36;14.73;;;4.45;;
52740;SDS011;38634;52.138;9.912;2023-03-01T14:34:23;32.45;;;7.68;;
52740;SDS011;38634;52.138;9.912;2023-03-01T14:37:22;39.50;;;9.30;;
52740;SDS011;38634;52.138;9.912;2023-03-01T14:40:19;46.70;;;10.80;;
52740;SDS011;38634;52.138;9.912;2023-03-01T14:43:11;20.83;;;6.90;;
52740;SDS011;38634;52.138;9.912;2023-03-01T14:46:00;32.42;;;9.02;;
52740;SDS011;38634;52.138;9.912;2023-03-01T14:48:44;27.73;;;8.13;;
52740;SDS011;38634;52.138;9.912;2023-03-01T14:51:35;22.50;;;5.90;;
52740;SDS011;38634;52.138;9.912;2023-03-01T14:57:14;33.55;;;7.85;;
52740;SDS011;38634;52.138;9.912;2023-03-01T15:00:07;30.55;;;7.63;;
52740;SDS011;38634;52.138;9.912;2023-03-01T15:02:58;50.40;;;9.80;;
52740;SDS011;38634;52.138;9.912;2023-03-01T15:05:56;33.33;;;7.20;;
52740;SDS011;38634;52.138;9.912;2023-03-01T15:08:48;51.00;;;10.38;;
52740;SDS011;38634;52.138;9.912;2023-03-01T15:11:36;14.77;;;4.63;;
52740;SDS011;38634;52.138;9.912;2023-03-01T15:14:25;33.35;;;8.30;;
52740;SDS011;38634;52.138;9.912;2023-03-01T15:20:16;43.60;;;9.07;;
52740;SDS011;38634;52.138;9.912;2023-03-01T15:23:04;40.75;;;9.00;;
52740;SDS011;38634;52.138;9.912;2023-03-01T15:25:50;19.20;;;5.43;;
52740;SDS011;38634;52.138;9.912;2023-03-01T15:28:41;39.42;;;9.18;;
52740;SDS011;38634;52.138;9.912;2023-03-01T15:31:34;33.88;;;8.55;;
52740;SDS011;38634;52.138;9.912;2023-03-01T15:34:26;23.20;;;6.75;;
52740;SDS011;38634;52.138;9.912;2023-03-01T15:40:37;17.98;;;6.25;;
52740;SDS011;38634;52.138;9.912;2023-03-01T15:43:46;37.92;;;8.70;;
52740;SDS011;38634;52.138;9.912;2023-03-01T15:46:31;23.50;;;7.05;;
52740;SDS011;38634;52.138;9.912;2023-03-01T15:52:35;47.53;;;9.55;;
52740;SDS011;38634;52.138;9.912;2023-03-01T15:55:29;24.83;;;6.57;;
52740;SDS011;38634;52.138;9.912;2023-03-01T15:58:18;53.08;;;11.90;;
52740;SDS011;38634;52.138;9.912;2023-03-01T16:01:13;32.45;;;8.52;;
52740;SDS011;38634;52.138;9.912;2023-03-01T16:04:03;41.95;;;10.38;;
52740;SDS011;38634;52.138;9.912;2023-03-01T16:06:47;50.28;;;9.95;;
52740;SDS011;38634;52.138;9.912;2023-03-01T16:09:37;23.67;;;6.05;;
52740;SDS011;38634;52.138;9.912;2023-03-01T16:12:22;22.58;;;5.13;;
52740;SDS011;38634;52.138;9.912;2023-03-01T16:15:13;40.83;;;9.45;;
52740;SDS011;38634;52.138;9.912;2023-03-01T16:18:06;27.35;;;6.28;;
52740;SDS011;38634;52.138;9.912;2023-03-01T16:20:53;35.60;;;8.20;;
52740;SDS011;38634;52.138;9.912;2023-03-01T16:23:38;59.17;;;11.52;;
52740;SDS011;38634;52.138;9.912;2023-03-01T16:26:22;54.47;;;11.18;;
52740;SDS011;38634;52.138;9.912;2023-03-01T16:29:07;28.20;;;6.45;;
52740;SDS011;38634;52.138;9.912;2023-03-01T16:31:52;24.38;;;6.10;;
52740;SDS011;38634;52.138;9.912;2023-03-01T16:34:43;32.05;;;7.03;;
52740;SDS011;38634;52.138;9.912;2023-03-01T16:37:33;32.35;;;6.97;;
52740;SDS011;38634;52.138;9.912;2023-03-01T16:40:20;26.25;;;6.53;;
52740;SDS011;38634;52.138;9.912;2023-03-01T16:43:10;52.65;;;9.73;;
52740;SDS011;38634;52.138;9.912;2023-03-01T16:45:55;50.55;;;9.75;;
52740;SDS011;38634;52.138;9.912;2023-03-01T16:48:40;26.13;;;7.30;;
52740;SDS011;38634;52.138;9.912;2023-03-01T16:51:25;21.35;;;6.15;;
52740;SDS011;38634;52.138;9.912;2023-03-01T16:54:09;36.47;;;8.40;;
52740;SDS011;38634;52.138;9.912;2023-03-01T16:56:54;48.40;;;10.45;;
52740;SDS011;38634;52.138;9.912;2023-03-01T16:59:39;39.38;;;8.80;;
52740;SDS011;38634;52.138;9.912;2023-03-01T17:02:24;25.83;;;6.70;;
52740;SDS011;38634;52.138;9.912;2023-03-01T17:05:09;22.20;;;5.82;;
52740;SDS011;38634;52.138;9.912;2023-03-01T17:07:55;36.33;;;8.05;;
52740;SDS011;38634;52.138;9.912;2023-03-01T17:10:40;32.90;;;7.63;;
52740;SDS011;38634;52.138;9.912;2023-03-01T17:13:25;31.65;;;7.93;;
52740;SDS011;38634;52.138;9.912;2023-03-01T17:16:11;20.38;;;6.60;;
52740;SDS011;38634;52.138;9.912;2023-03-01T17:18:59;31.35;;;7.80;;
52740;SDS011;38634;52.138;9.912;2023-03-01T17:21:44;32.13;;;7.95;;
52740;SDS011;38634;52.138;9.912;2023-03-01T17:24:32;27.80;;;7.65;;
52740;SDS011;38634;52.138;9.912;2023-03-01T17:27:17;18.05;;;4.75;;
52740;SDS011;38634;52.138;9.912;2023-03-01T17:30:02;27.60;;;7.75;;
52740;SDS011;38634;52.138;9.912;2023-03-01T17:32:48;40.20;;;8.98;;
52740;SDS011;38634;52.138;9.912;2023-03-01T17:35:33;27.90;;;6.60;;
52740;SDS011;38634;52.138;9.912;2023-03-01T17:38:19;19.92;;;6.22;;
52740;SDS011;38634;52.138;9.912;2023-03-01T17:41:04;21.70;;;5.93;;
52740;SDS011;38634;52.138;9.912;2023-03-01T17:43:50;36.25;;;8.88;;
52740;SDS011;38634;52.138;9.912;2023-03-01T17:46:34;37.80;;;8.13;;
52740;SDS011;38634;52.138;9.912;2023-03-01T17:49:19;30.13;;;7.60;;
52740;SDS011;38634;52.138;9.912;2023-03-01T17:52:04;24.42;;;7.57;;
52740;SDS011;38634;52.138;9.912;2023-03-01T17:54:48;24.60;;;6.18;;
52740;SDS011;38634;52.138;9.912;2023-03-01T17:57:33;39.40;;;8.60;;
52740;SDS011;38634;52.138;9.912;2023-03-01T18:00:18;32.85;;;7.88;;
52740;SDS011;38634;52.138;9.912;2023-03-01T18:03:03;25.63;;;6.50;;
52740;SDS011;38634;52.138;9.912;2023-03-01T18:05:47;16.90;;;5.07;;
52740;SDS011;38634;52.138;9.912;2023-03-01T18:08:35;28.00;;;7.63;;
52740;SDS011;38634;52.138;9.912;2023-03-01T18:11:20;30.52;;;8.25;;
52740;SDS011;38634;52.138;9.912;2023-03-01T18:14:06;27.38;;;7.60;;
52740;SDS011;38634;52.138;9.912;2023-03-01T18:16:51;11.95;;;4.03;;
52740;SDS011;38634;52.138;9.912;2023-03-01T18:19:39;30.75;;;8.73;;
52740;SDS011;38634;52.138;9.912;2023-03-01T18:22:24;21.45;;;6.00;;
52740;SDS011;38634;52.138;9.912;2023-03-01T18:25:09;22.42;;;5.63;;
52740;SDS011;38634;52.138;9.912;2023-03-01T18:27:57;45.50;;;9.05;;
52740;SDS011;38634;52.138;9.912;2023-03-01T18:30:42;42.80;;;8.90;;
52740;SDS011;38634;52.138;9.912;2023-03-01T18:33:26;30.08;;;7.70;;
52740;SDS011;38634;52.138;9.912;2023-03-01T18:36:17;18.83;;;5.03;;
52740;SDS011;38634;52.138;9.912;2023-03-01T18:39:04;32.90;;;9.20;;
52740;SDS011;38634;52.138;9.912;2023-03-01T18:41:49;39.97;;;8.80;;
52740;SDS011;38634;52.138;9.912;2023-03-01T18:44:34;23.23;;;6.20;;
52740;SDS011;38634;52.138;9.912;2023-03-01T18:47:20;14.40;;;5.40;;
52740;SDS011;38634;52.138;9.912;2023-03-01T18:50:05;15.95;;;5.63;;
52740;SDS011;38634;52.138;9.912;2023-03-01T18:52:50;30.45;;;8.52;;
52740;SDS011;38634;52.138;9.912;2023-03-01T18:55:38;42.30;;;9.40;;
52740;SDS011;38634;52.138;9.912;2023-03-01T18:58:22;28.23;;;7.55;;
52740;SDS011;38634;52.138;9.912;2023-03-01T19:01:14;29.88;;;7.80;;
52740;SDS011;38634;52.138;9.912;2023-03-01T19:04:01;43.08;;;10.77;;
52740;SDS011;38634;52.138;9.912;2023-03-01T19:06:46;24.67;;;7.10;;
52740;SDS011;38634;52.138;9.912;2023-03-01T19:09:31;21.75;;;6.28;;
52740;SDS011;38634;52.138;9.912;2023-03-01T19:12:15;20.58;;;6.25;;
52740;SDS011;38634;52.138;9.912;2023-03-01T19:15:00;18.20;;;6.57;;
52740;SDS011;38634;52.138;9.912;2023-03-01T19:17:45;23.55;;;8.98;;
52740;SDS011;38634;52.138;9.912;2023-03-01T19:20:30;20.73;;;7.65;;
52740;SDS011;38634;52.138;9.912;2023-03-01T19:23:15;10.63;;;5.55;;
52740;SDS011;38634;52.138;9.912;2023-03-01T19:26:00;11.00;;;4.85;;
52740;SDS011;38634;52.138;9.912;2023-03-01T19:28:47;19.35;;;8.40;;
52740;SDS011;38634;52.138;9.912;2023-03-01T19:31:32;17.88;;;8.30;;
52740;SDS011;38634;52.138;9.912;2023-03-01T19:34:16;19.80;;;7.55;;
52740;SDS011;38634;52.138;9.912;2023-03-01T19:37:01;17.70;;;5.63;;
52740;SDS011;38634;52.138;9.912;2023-03-01T19:39:45;18.17;;;5.70;;
52740;SDS011;38634;52.138;9.912;2023-03-01T19:42:30;23.00;;;7.68;;
52740;SDS011;38634;52.138;9.912;2023-03-01T19:45:15;37.47;;;9.55;;
52740;SDS011;38634;52.138;9.912;2023-03-01T19:48:00;33.30;;;10.70;;
52740;SDS011;38634;52.138;9.912;2023-03-01T19:50:44;22.67;;;6.95;;
52740;SDS011;38634;52.138;9.912;2023-03-01T19:53:29;22.40;;;5.93;;
52740;SDS011;38634;52.138;9.912;2023-03-01T19:56:14;28.23;;;7.73;;
52740;SDS011;38634;52.138;9.912;2023-03-01T19:58:58;34.65;;;10.30;;
52740;SDS011;38634;52.138;9.912;2023-03-01T20:01:45;36.47;;;9.20;;
52740;SDS011;38634;52.138;9.912;2023-03-01T20:04:30;14.00;;;5.75;;
52740;SDS011;38634;52.138;9.912;2023-03-01T20:07:15;11.63;;;5.78;;
52740;SDS011;38634;52.138;9.912;2023-03-01T20:10:00;23.05;;;7.38;;
52740;SDS011;38634;52.138;9.912;2023-03-01T20:12:45;34.70;;;9.18;;
52740;SDS011;38634;52.138;9.912;2023-03-01T20:15:30;39.70;;;9.63;;
52740;SDS011;38634;52.138;9.912;2023-03-01T20:18:14;20.33;;;6.88;;
52740;SDS011;38634;52.138;9.912;2023-03-01T20:20:59;20.60;;;6.50;;
52740;SDS011;38634;52.138;9.912;2023-03-01T20:23:44;24.95;;;7.18;;
52740;SDS011;38634;52.138;9.912;2023-03-01T20:26:30;25.88;;;8.80;;
52740;SDS011;38634;52.138;9.912;2023-03-01T20:29:15;42.78;;;9.55;;
52740;SDS011;38634;52.138;9.912;2023-03-01T20:32:00;23.02;;;6.97;;
52740;SDS011;38634;52.138;9.912;2023-03-01T20:34:44;16.08;;;5.72;;
52740;SDS011;38634;52.138;9.912;2023-03-01T20:37:29;18.85;;;7.05;;
52740;SDS011;38634;52.138;9.912;2023-03-01T20:40:14;25.30;;;8.57;;
52740;SDS011;38634;52.138;9.912;2023-03-01T20:42:59;23.90;;;8.75;;
52740;SDS011;38634;52.138;9.912;2023-03-01T20:45:44;25.00;;;8.15;;
52740;SDS011;38634;52.138;9.912;2023-03-01T20:48:29;25.27;;;8.10;;
52740;SDS011;38634;52.138;9.912;2023-03-01T20:51:13;25.00;;;7.07;;
52740;SDS011;38634;52.138;9.912;2023-03-01T20:53:58;32.97;;;11.15;;
52740;SDS011;38634;52.138;9.912;2023-03-01T20:56:42;18.88;;;7.47;;
52740;SDS011;38634;52.138;9.912;2023-03-01T20:59:27;24.42;;;7.82;;
52740;SDS011;38634;52.138;9.912;2023-03-01T21:02:12;21.73;;;7.07;;
52740;SDS011;38634;52.138;9.912;2023-03-01T21:04:56;27.55;;;11.15;;
52740;SDS011;38634;52.138;9.912;2023-03-01T21:07:41;14.82;;;4.68;;
52740;SDS011;38634;52.138;9.912;2023-03-01T21:10:26;12.95;;;4.50;;
52740;SDS011;38634;52.138;9.912;2023-03-01T21:13:10;18.17;;;5.38;;
52740;SDS011;38634;52.138;9.912;2023-03-01T21:15:59;18.92;;;4.30;;
52740;SDS011;38634;52.138;9.912;2023-03-01T21:18:47;20.50;;;5.28;;
52740;SDS011;38634;52.138;9.912;2023-03-01T21:21:32;15.40;;;4.05;;
52740;SDS011;38634;52.138;9.912;2023-03-01T21:24:16;18.77;;;4.40;;
52740;SDS011;38634;52.138;9.912;2023-03-01T21:27:01;19.08;;;4.75;;
52740;SDS011;38634;52.138;9.912;2023-03-01T21:29:49;22.38;;;5.55;;
52740;SDS011;38634;52.138;9.912;2023-03-01T21:32:33;19.20;;;4.57;;
52740;SDS011;38634;52.138;9.912;2023-03-01T21:35:18;20.15;;;5.00;;
52740;SDS011;38634;52.138;9.912;2023-03-01T21:38:02;16.75;;;4.85;;
52740;SDS011;38634;52.138;9.912;2023-03-01T21:40:47;14.00;;;4.70;;
52740;SDS011;38634;52.138;9.912;2023-03-01T21:43:32;13.00;;;4.03;;
52740;SDS011;38634;52.138;9.912;2023-03-01T21:46:18;16.77;;;4.45;;
52740;SDS011;38634;52.138;9.912;2023-03-01T21:49:06;17.15;;;4.82;;
52740;SDS011;38634;52.138;9.912;2023-03-01T21:51:53;21.73;;;5.28;;
52740;SDS011;38634;52.138;9.912;2023-03-01T21:54:37;13.45;;;4.13;;
52740;SDS011;38634;52.138;9.912;2023-03-01T21:57:22;17.50;;;4.68;;
52740;SDS011;38634;52.138;9.912;2023-03-01T22:00:07;13.23;;;4.47;;
52740;SDS011;38634;52.138;9.912;2023-03-01T22:02:53;13.60;;;4.30;;
52740;SDS011;38634;52.138;9.912;2023-03-01T22:05:40;16.05;;;4.65;;
52740;SDS011;38634;52.138;9.912;2023-03-01T22:08:25;8.02;;;3.78;;
52740;SDS011;38634;52.138;9.912;2023-03-01T22:11:11;7.60;;;3.58;;
52740;SDS011;38634;52.138;9.912;2023-03-01T22:13:55;5.05;;;3.17;;
52740;SDS011;38634;52.138;9.912;2023-03-01T22:16:41;15.25;;;4.32;;
52740;SDS011;38634;52.138;9.912;2023-03-01T22:19:28;7.80;;;3.30;;
52740;SDS011;38634;52.138;9.912;2023-03-01T22:22:13;9.88;;;4.22;;
52740;SDS011;38634;52.138;9.912;2023-03-01T22:24:57;7.13;;;3.90;;
52740;SDS011;38634;52.138;9.912;2023-03-01T22:27:42;4.28;;;3.08;;
52740;SDS011;38634;52.138;9.912;2023-03-01T22:30:26;7.28;;;3.65;;
52740;SDS011;38634;52.138;9.912;2023-03-01T22:33:11;9.57;;;5.53;;
52740;SDS011;38634;52.138;9.912;2023-03-01T22:35:56;8.45;;;3.80;;
52740;SDS011;38634;52.138;9.912;2023-03-01T22:38:40;9.20;;;3.92;;
52740;SDS011;38634;52.138;9.912;2023-03-01T22:41:29;9.13;;;4.43;;
52740;SDS011;38634;52.138;9.912;2023-03-01T22:44:20;7.85;;;3.58;;
52740;SDS011;38634;52.138;9.912;2023-03-01T22:47:06;8.23;;;3.55;;
52740;SDS011;38634;52.138;9.912;2023-03-01T22:49:54;6.20;;;3.13;;
52740;SDS011;38634;52.138;9.912;2023-03-01T22:52:39;6.88;;;3.15;;
52740;SDS011;38634;52.138;9.912;2023-03-01T22:55:26;10.90;;;3.65;;
52740;SDS011;38634;52.138;9.912;2023-03-01T22:58:11;7.97;;;3.67;;
52740;SDS011;38634;52.138;9.912;2023-03-01T23:00:55;9.23;;;3.65;;
52740;SDS011;38634;52.138;9.912;2023-03-01T23:03:40;7.85;;;4.25;;
52740;SDS011;38634;52.138;9.912;2023-03-01T23:06:25;9.88;;;4.55;;
52740;SDS011;38634;52.138;9.912;2023-03-01T23:09:12;9.18;;;5.00;;
52740;SDS011;38634;52.138;9.912;2023-03-01T23:11:58;9.05;;;3.60;;
52740;SDS011;38634;52.138;9.912;2023-03-01T23:14:44;7.78;;;3.50;;
52740;SDS011;38634;52.138;9.912;2023-03-01T23:17:28;8.50;;;3.33;;
52740;SDS011;38634;52.138;9.912;2023-03-01T23:20:13;11.38;;;3.90;;
52740;SDS011;38634;52.138;9.912;2023-03-01T23:22:58;12.30;;;4.57;;
52740;SDS011;38634;52.138;9.912;2023-03-01T23:25:53;5.97;;;4.15;;
52740;SDS011;38634;52.138;9.912;2023-03-01T23:28:39;6.10;;;3.78;;
52740;SDS011;38634;52.138;9.912;2023-03-01T23:31:23;11.07;;;3.95;;
52740;SDS011;38634;52.138;9.912;2023-03-01T23:34:12;6.10;;;3.45;;
52740;SDS011;38634;52.138;9.912;2023-03-01T23:36:57;10.85;;;3.95;;
52740;SDS011;38634;52.138;9.912;2023-03-01T23:39:42;10.25;;;3.58;;
52740;SDS011;38634;52.138;9.912;2023-03-01T23:42:26;7.97;;;3.42;;
52740;SDS011;38634;52.138;9.912;2023-03-01T23:45:11;12.00;;;3.83;;
52740;SDS011;38634;52.138;9.912;2023-03-01T23:47:55;9.52;;;3.55;;
52740;SDS011;38634;52.138;9.912;2023-03-01T23:50:40;9.05;;;4.20;;
52740;SDS011;38634;52.138;9.912;2023-03-01T23:53:24;7.60;;;4.72;;
52740;SDS011;38634;52.138;9.912;2023-03-01T23:56:10;7.22;;;3.40;;
52740;SDS011;38634;52.138;9.912;2023-03-01T23:58:56;8.32;;;3.47;;
